Surprise, AZ

12:17 PM MST on May 22, 2015 (GMT -0700)
Kingswood Parke | | Change Station
CLOSE
Current Station
Personal Weather Station
Location: Surprise, AZ
Elevation: 1227 ft
Nearby Weather Stations

Elev 1227 ft 33.64 °N, 112.37 °W | Updated 7 seconds ago

Clear
Clear
81.0 °F
Feels Like 80 °F
N
3.5
Wind Variable Wind from SW
Gusts 3.5 mph

Today
High -- | Low -- °F
--% Chance of Precip.
Yesterday
High -- | Low -- °F
Precip. -- in
5:24 AM 7:28 PM
Waxing Crescent, 23% visible
Pressure 29.85 in
Visibility 10.0 miles
Clouds Clear
Heat Index 80 °F
Dew Point 46 °F
Humidity 29%
Rainfall 0.00 in
Snow Depth Not available.
UV 12 out of 12
Pollen 4.60 out of 12
Air Quality Not available.
Flu Activity Local Activity
METAR KLUF 221858Z AUTO 21017G22KT 10SM CLR 24/06 A2988 RMK AO2 RAB25E35 SLP108 P0000 T02440061 $

More Conditions Fewer Conditions

Pressure 29.85 in
Visibility 10.0 miles
Clouds Clear
Heat Index 80 °F
Dew Point 46 °F
Humidity 29%
Rainfall 0.00 in
Snow Depth Not available.
UV 12 out of 12
Pollen 4.60 out of 12
Air Quality Not available.
Flu Activity Local Activity
METAR KLUF 221858Z AUTO 21017G22KT 10SM CLR 24/06 A2988 RMK AO2 RAB25E35 SLP108 P0000 T02440061 $

More Conditions Fewer Conditions

10-Day Weather Forecast

Almanac

Astronomy

May. 22, 2015 Rise Set
Actual Time
Civil Twilight
Nautical Twilight
Astronomical Twilight
Moon
Length of Visible Light
Length of Day
Tomorrow will be .
, % of the Moon is Illuminated

Today's Extremes

State Highs State Lows

Community

WunderPhotos

Upload Photos

1,823,279 photos uploaded!

WunderBlogs® & News

Nearby

Air Quality

  Air Quality AQ Index Pollutant
Not available.

Snow Depth

Station Depth Elevation

Earthquake Activity

City Distance Mag. Time & Date
Minimum magnitude displayed is 2.5.

Coastal Water Temperatures

Place Temperature

Stations

Nearby Weather Stations

Station Location Temp. Windchill Dew Point Humidity Wind Precip. Elev Updated Type